sensor_id;sensor_type;location;lat;lon;timestamp;pressure;altitude;pressure_sealevel;temperature;humidity
55456;BME280;63021;52.836;6.376;2023-05-25T00:00:36;102745.59;;;9.87;67.20
55456;BME280;63021;52.836;6.376;2023-05-25T00:03:01;102735.22;;;9.82;67.38
55456;BME280;63021;52.836;6.376;2023-05-25T00:05:28;102735.41;;;9.79;67.43
55456;BME280;63021;52.836;6.376;2023-05-25T00:07:53;102733.91;;;9.75;67.48
55456;BME280;63021;52.836;6.376;2023-05-25T00:10:22;102740.28;;;9.73;67.95
55456;BME280;63021;52.836;6.376;2023-05-25T00:12:47;102749.19;;;9.71;67.39
55456;BME280;63021;52.836;6.376;2023-05-25T00:15:13;102742.25;;;9.69;67.56
55456;BME280;63021;52.836;6.376;2023-05-25T00:17:39;102745.84;;;9.68;67.48
55456;BME280;63021;52.836;6.376;2023-05-25T00:20:05;102738.16;;;9.63;67.94
55456;BME280;63021;52.836;6.376;2023-05-25T00:22:35;102732.00;;;9.63;67.29
55456;BME280;63021;52.836;6.376;2023-05-25T00:25:04;102731.22;;;9.61;68.00
55456;BME280;63021;52.836;6.376;2023-05-25T00:27:30;102728.22;;;9.52;67.96
55456;BME280;63021;52.836;6.376;2023-05-25T00:29:56;102752.50;;;9.46;67.75
55456;BME280;63021;52.836;6.376;2023-05-25T00:32:22;102737.66;;;9.42;67.50
55456;BME280;63021;52.836;6.376;2023-05-25T00:34:47;102737.00;;;9.39;68.07
55456;BME280;63021;52.836;6.376;2023-05-25T00:37:13;102738.91;;;9.36;67.76
55456;BME280;63021;52.836;6.376;2023-05-25T00:39:39;102745.44;;;9.31;67.82
55456;BME280;63021;52.836;6.376;2023-05-25T00:42:05;102737.75;;;9.26;67.83
55456;BME280;63021;52.836;6.376;2023-05-25T00:44:31;102723.69;;;9.24;67.70
55456;BME280;63021;52.836;6.376;2023-05-25T00:46:57;102733.56;;;9.22;68.28
55456;BME280;63021;52.836;6.376;2023-05-25T00:49:22;102743.53;;;9.18;68.00
55456;BME280;63021;52.836;6.376;2023-05-25T00:51:50;102744.66;;;9.14;67.97
55456;BME280;63021;52.836;6.376;2023-05-25T00:54:16;102744.75;;;9.13;67.74
55456;BME280;63021;52.836;6.376;2023-05-25T00:56:46;102732.66;;;9.07;68.13
55456;BME280;63021;52.836;6.376;2023-05-25T00:59:25;102739.00;;;9.05;67.77
55456;BME280;63021;52.836;6.376;2023-05-25T01:01:53;102737.56;;;8.99;68.50
55456;BME280;63021;52.836;6.376;2023-05-25T01:04:20;102738.69;;;8.95;68.15
55456;BME280;63021;52.836;6.376;2023-05-25T01:06:47;102740.59;;;8.93;68.29
55456;BME280;63021;52.836;6.376;2023-05-25T01:09:15;102765.53;;;8.90;68.65
55456;BME280;63021;52.836;6.376;2023-05-25T01:11:43;102746.00;;;8.91;68.38
55456;BME280;63021;52.836;6.376;2023-05-25T01:14:09;102745.22;;;8.89;68.30
55456;BME280;63021;52.836;6.376;2023-05-25T01:16:35;102750.47;;;8.91;68.51
55456;BME280;63021;52.836;6.376;2023-05-25T01:19:02;102754.25;;;8.87;68.32
55456;BME280;63021;52.836;6.376;2023-05-25T01:21:47;102755.28;;;8.84;68.24
55456;BME280;63021;52.836;6.376;2023-05-25T01:24:27;102758.09;;;8.81;68.22
55456;BME280;63021;52.836;6.376;2023-05-25T01:29:44;102750.38;;;8.76;68.86
55456;BME280;63021;52.836;6.376;2023-05-25T01:32:14;102753.13;;;8.75;68.74
55456;BME280;63021;52.836;6.376;2023-05-25T01:34:42;102754.19;;;8.72;68.93
55456;BME280;63021;52.836;6.376;2023-05-25T01:37:08;102766.69;;;8.70;68.46
55456;BME280;63021;52.836;6.376;2023-05-25T01:39:33;102765.03;;;8.67;68.82
55456;BME280;63021;52.836;6.376;2023-05-25T01:41:59;102758.88;;;8.67;69.03
55456;BME280;63021;52.836;6.376;2023-05-25T01:44:26;102758.03;;;8.66;69.15
55456;BME280;63021;52.836;6.376;2023-05-25T01:47:01;102760.69;;;8.66;69.00
55456;BME280;63021;52.836;6.376;2023-05-25T01:52:44;102764.47;;;8.62;69.07
55456;BME280;63021;52.836;6.376;2023-05-25T01:55:14;102764.66;;;8.59;68.94
55456;BME280;63021;52.836;6.376;2023-05-25T01:57:45;102756.69;;;8.59;68.90
55456;BME280;63021;52.836;6.376;2023-05-25T02:00:14;102770.03;;;8.58;68.86
55456;BME280;63021;52.836;6.376;2023-05-25T02:02:41;102771.91;;;8.56;69.33
55456;BME280;63021;52.836;6.376;2023-05-25T02:05:09;102772.94;;;8.53;69.26
55456;BME280;63021;52.836;6.376;2023-05-25T02:07:35;102767.88;;;8.48;69.27
55456;BME280;63021;52.836;6.376;2023-05-25T02:10:01;102763.41;;;8.49;69.42
55456;BME280;63021;52.836;6.376;2023-05-25T02:12:26;102763.50;;;8.47;68.79
55456;BME280;63021;52.836;6.376;2023-05-25T02:14:52;102767.03;;;8.48;68.72
55456;BME280;63021;52.836;6.376;2023-05-25T02:17:17;102768.06;;;8.45;69.19
55456;BME280;63021;52.836;6.376;2023-05-25T02:19:44;102772.53;;;8.45;69.55
55456;BME280;63021;52.836;6.376;2023-05-25T02:22:13;102772.59;;;8.43;69.14
55456;BME280;63021;52.836;6.376;2023-05-25T02:24:39;102776.25;;;8.41;70.09
55456;BME280;63021;52.836;6.376;2023-05-25T02:27:05;102775.47;;;8.39;69.59
55456;BME280;63021;52.836;6.376;2023-05-25T02:29:31;102770.34;;;8.36;69.25
55456;BME280;63021;52.836;6.376;2023-05-25T02:31:57;102766.94;;;8.33;69.48
55456;BME280;63021;52.836;6.376;2023-05-25T02:34:22;102770.59;;;8.31;69.81
55456;BME280;63021;52.836;6.376;2023-05-25T02:36:48;102770.84;;;8.26;70.26
55456;BME280;63021;52.836;6.376;2023-05-25T02:39:14;102783.09;;;8.29;70.09
55456;BME280;63021;52.836;6.376;2023-05-25T02:41:39;102777.09;;;8.25;69.89
55456;BME280;63021;52.836;6.376;2023-05-25T02:44:05;102783.25;;;8.26;70.23
55456;BME280;63021;52.836;6.376;2023-05-25T02:46:30;102778.13;;;8.23;70.48
55456;BME280;63021;52.836;6.376;2023-05-25T02:48:57;102779.00;;;8.23;69.67
55456;BME280;63021;52.836;6.376;2023-05-25T02:51:24;102780.69;;;8.24;69.74
55456;BME280;63021;52.836;6.376;2023-05-25T02:53:49;102780.69;;;8.24;70.55
55456;BME280;63021;52.836;6.376;2023-05-25T02:56:15;102779.91;;;8.22;69.79
55456;BME280;63021;52.836;6.376;2023-05-25T02:58:41;102777.28;;;8.22;69.94
55456;BME280;63021;52.836;6.376;2023-05-25T03:01:06;102774.53;;;8.24;69.84
55456;BME280;63021;52.836;6.376;2023-05-25T03:03:35;102783.41;;;8.23;70.26
55456;BME280;63021;52.836;6.376;2023-05-25T03:06:01;102787.03;;;8.22;69.75
55456;BME280;63021;52.836;6.376;2023-05-25T03:08:28;102781.72;;;8.22;69.82
55456;BME280;63021;52.836;6.376;2023-05-25T03:10:53;102794.13;;;8.21;70.37
55456;BME280;63021;52.836;6.376;2023-05-25T03:13:19;102783.50;;;8.21;70.41
55456;BME280;63021;52.836;6.376;2023-05-25T03:15:45;102789.69;;;8.22;70.36
55456;BME280;63021;52.836;6.376;2023-05-25T03:18:10;102789.59;;;8.23;70.15
55456;BME280;63021;52.836;6.376;2023-05-25T03:20:35;102797.66;;;8.22;69.63
55456;BME280;63021;52.836;6.376;2023-05-25T03:23:01;102795.94;;;8.21;70.54
55456;BME280;63021;52.836;6.376;2023-05-25T03:25:26;102798.66;;;8.19;70.14
55456;BME280;63021;52.836;6.376;2023-05-25T03:27:53;102801.41;;;8.18;70.33
55456;BME280;63021;52.836;6.376;2023-05-25T03:30:20;102801.50;;;8.16;70.34
55456;BME280;63021;52.836;6.376;2023-05-25T03:32:46;102802.41;;;8.15;69.59
55456;BME280;63021;52.836;6.376;2023-05-25T03:35:11;102807.91;;;8.12;70.19
55456;BME280;63021;52.836;6.376;2023-05-25T03:37:36;102801.72;;;8.11;69.66
55456;BME280;63021;52.836;6.376;2023-05-25T03:40:02;102805.31;;;8.10;69.41
55456;BME280;63021;52.836;6.376;2023-05-25T03:42:28;102807.09;;;8.10;70.22
55456;BME280;63021;52.836;6.376;2023-05-25T03:44:54;102805.41;;;8.09;69.99
55456;BME280;63021;52.836;6.376;2023-05-25T03:47:19;102808.13;;;8.07;69.91
55456;BME280;63021;52.836;6.376;2023-05-25T03:49:45;102806.44;;;8.06;69.94
55456;BME280;63021;52.836;6.376;2023-05-25T03:52:10;102807.28;;;8.07;70.39
55456;BME280;63021;52.836;6.376;2023-05-25T03:54:36;102814.38;;;8.06;70.26
55456;BME280;63021;52.836;6.376;2023-05-25T03:57:01;102818.13;;;8.02;69.90
55456;BME280;63021;52.836;6.376;2023-05-25T03:59:28;102812.91;;;8.01;69.72
55456;BME280;63021;52.836;6.376;2023-05-25T04:01:53;102813.75;;;8.01;70.11
55456;BME280;63021;52.836;6.376;2023-05-25T04:04:19;102810.25;;;8.01;70.25
55456;BME280;63021;52.836;6.376;2023-05-25T04:06:45;102817.22;;;8.03;69.75
55456;BME280;63021;52.836;6.376;2023-05-25T04:09:15;102818.91;;;8.04;70.24
55456;BME280;63021;52.836;6.376;2023-05-25T04:11:41;102820.63;;;8.05;69.76
55456;BME280;63021;52.836;6.376;2023-05-25T04:14:06;102815.31;;;8.05;70.60
55456;BME280;63021;52.836;6.376;2023-05-25T04:16:32;102814.38;;;8.06;69.80
55456;BME280;63021;52.836;6.376;2023-05-25T04:18:57;102815.31;;;8.05;70.05
55456;BME280;63021;52.836;6.376;2023-05-25T04:21:22;102819.59;;;8.08;70.82
55456;BME280;63021;52.836;6.376;2023-05-25T04:23:48;102821.16;;;8.12;69.89
55456;BME280;63021;52.836;6.376;2023-05-25T04:26:13;102818.50;;;8.12;70.46
55456;BME280;63021;52.836;6.376;2023-05-25T04:28:41;102827.94;;;8.18;70.13
55456;BME280;63021;52.836;6.376;2023-05-25T04:31:06;102823.31;;;8.21;70.56
55456;BME280;63021;52.836;6.376;2023-05-25T04:33:33;102823.13;;;8.24;71.22
55456;BME280;63021;52.836;6.376;2023-05-25T04:36:03;102819.28;;;8.30;71.93
55456;BME280;63021;52.836;6.376;2023-05-25T04:38:29;102812.78;;;8.36;71.75
55456;BME280;63021;52.836;6.376;2023-05-25T04:40:55;102811.50;;;8.43;70.98
55456;BME280;63021;52.836;6.376;2023-05-25T04:43:22;102828.94;;;8.48;71.28
55456;BME280;63021;52.836;6.376;2023-05-25T04:45:50;102822.34;;;8.56;71.54
55456;BME280;63021;52.836;6.376;2023-05-25T04:48:15;102824.59;;;8.63;71.53
55456;BME280;63021;52.836;6.376;2023-05-25T04:50:41;102827.84;;;8.69;71.78
55456;BME280;63021;52.836;6.376;2023-05-25T04:53:07;102823.88;;;8.76;71.64
55456;BME280;63021;52.836;6.376;2023-05-25T04:55:32;102829.72;;;8.82;72.64
55456;BME280;63021;52.836;6.376;2023-05-25T04:57:58;102830.22;;;8.89;72.55
55456;BME280;63021;52.836;6.376;2023-05-25T05:00:23;102827.13;;;8.97;73.42
55456;BME280;63021;52.836;6.376;2023-05-25T05:02:49;102824.03;;;9.05;72.96
55456;BME280;63021;52.836;6.376;2023-05-25T05:05:15;102829.84;;;9.11;73.02
55456;BME280;63021;52.836;6.376;2023-05-25T05:07:41;102832.84;;;9.21;73.75
55456;BME280;63021;52.836;6.376;2023-05-25T05:10:07;102827.91;;;9.29;73.82
55456;BME280;63021;52.836;6.376;2023-05-25T05:12:32;102831.78;;;9.40;74.15
55456;BME280;63021;52.836;6.376;2023-05-25T05:14:58;102831.22;;;9.49;74.37
55456;BME280;63021;52.836;6.376;2023-05-25T05:17:23;102842.16;;;9.59;74.96
55456;BME280;63021;52.836;6.376;2023-05-25T05:19:50;102846.06;;;9.67;75.18
55456;BME280;63021;52.836;6.376;2023-05-25T05:22:15;102847.22;;;9.78;75.29
55456;BME280;63021;52.836;6.376;2023-05-25T05:24:41;102846.75;;;9.85;74.99
55456;BME280;63021;52.836;6.376;2023-05-25T05:27:07;102862.09;;;9.96;75.72
55456;BME280;63021;52.836;6.376;2023-05-25T05:29:32;102851.75;;;10.06;76.06
55456;BME280;63021;52.836;6.376;2023-05-25T05:31:59;102864.28;;;10.18;76.06
55456;BME280;63021;52.836;6.376;2023-05-25T05:34:25;102860.97;;;10.29;75.90
55456;BME280;63021;52.836;6.376;2023-05-25T05:36:50;102854.22;;;10.38;76.40
55456;BME280;63021;52.836;6.376;2023-05-25T05:39:16;102859.84;;;10.48;76.63
55456;BME280;63021;52.836;6.376;2023-05-25T05:41:41;102864.47;;;10.58;76.25
55456;BME280;63021;52.836;6.376;2023-05-25T05:44:10;102861.25;;;10.68;76.35
55456;BME280;63021;52.836;6.376;2023-05-25T05:46:36;102867.69;;;10.78;76.67
55456;BME280;63021;52.836;6.376;2023-05-25T05:49:02;102869.66;;;10.89;76.46
55456;BME280;63021;52.836;6.376;2023-05-25T05:51:28;102868.38;;;10.95;76.78
55456;BME280;63021;52.836;6.376;2023-05-25T05:53:53;102861.53;;;11.05;76.17
55456;BME280;63021;52.836;6.376;2023-05-25T05:56:19;102861.75;;;11.15;76.45
55456;BME280;63021;52.836;6.376;2023-05-25T05:58:46;102864.66;;;11.24;76.64
55456;BME280;63021;52.836;6.376;2023-05-25T06:01:13;102871.09;;;11.35;76.33
55456;BME280;63021;52.836;6.376;2023-05-25T06:03:38;102874.47;;;11.51;76.24
55456;BME280;63021;52.836;6.376;2023-05-25T06:06:04;102878.22;;;11.61;75.70
55456;BME280;63021;52.836;6.376;2023-05-25T06:08:29;102881.22;;;11.70;76.21
55456;BME280;63021;52.836;6.376;2023-05-25T06:10:55;102878.03;;;11.77;75.92
55456;BME280;63021;52.836;6.376;2023-05-25T06:13:21;102879.09;;;11.88;75.34
55456;BME280;63021;52.836;6.376;2023-05-25T06:15:46;102880.31;;;11.96;75.56
55456;BME280;63021;52.836;6.376;2023-05-25T06:18:12;102892.09;;;12.07;75.74
55456;BME280;63021;52.836;6.376;2023-05-25T06:20:37;102883.53;;;12.15;75.43
55456;BME280;63021;52.836;6.376;2023-05-25T06:23:02;102888.31;;;12.22;75.60
55456;BME280;63021;52.836;6.376;2023-05-25T06:25:28;102890.25;;;12.33;74.94
55456;BME280;63021;52.836;6.376;2023-05-25T06:27:53;102890.69;;;12.40;74.79
55456;BME280;63021;52.836;6.376;2023-05-25T06:30:18;102903.25;;;12.51;74.39
55456;BME280;63021;52.836;6.376;2023-05-25T06:32:44;102898.22;;;12.59;74.08
55456;BME280;63021;52.836;6.376;2023-05-25T06:35:09;102900.13;;;12.70;73.53
55456;BME280;63021;52.836;6.376;2023-05-25T06:37:44;102901.25;;;12.78;73.71
55456;BME280;63021;52.836;6.376;2023-05-25T06:40:09;102898.78;;;12.88;72.80
55456;BME280;63021;52.836;6.376;2023-05-25T06:42:35;102907.09;;;12.96;72.79
55456;BME280;63021;52.836;6.376;2023-05-25T06:45:02;102904.72;;;13.05;72.60
55456;BME280;63021;52.836;6.376;2023-05-25T06:47:28;102906.09;;;13.10;72.27
55456;BME280;63021;52.836;6.376;2023-05-25T06:49:53;102913.66;;;13.16;71.83
55456;BME280;63021;52.836;6.376;2023-05-25T06:52:19;102916.75;;;13.23;71.81
55456;BME280;63021;52.836;6.376;2023-05-25T06:54:44;102917.25;;;13.28;71.58
55456;BME280;63021;52.836;6.376;2023-05-25T06:57:10;102922.16;;;13.34;71.47
55456;BME280;63021;52.836;6.376;2023-05-25T06:59:35;102922.44;;;13.43;71.18
55456;BME280;63021;52.836;6.376;2023-05-25T07:02:00;102920.28;;;13.48;70.70
55456;BME280;63021;52.836;6.376;2023-05-25T07:04:26;102913.50;;;13.55;70.51
55456;BME280;63021;52.836;6.376;2023-05-25T07:06:52;102922.78;;;13.62;69.73
55456;BME280;63021;52.836;6.376;2023-05-25T07:09:18;102933.78;;;13.71;69.69
55456;BME280;63021;52.836;6.376;2023-05-25T07:11:43;102929.53;;;13.79;69.79
55456;BME280;63021;52.836;6.376;2023-05-25T07:14:09;102930.78;;;13.86;69.28
55456;BME280;63021;52.836;6.376;2023-05-25T07:16:34;102940.38;;;13.89;68.59
55456;BME280;63021;52.836;6.376;2023-05-25T07:19:00;102940.16;;;13.92;68.11
55456;BME280;63021;52.836;6.376;2023-05-25T07:21:26;102937.38;;;13.94;68.25
55456;BME280;63021;52.836;6.376;2023-05-25T07:23:51;102936.25;;;13.96;67.33
55456;BME280;63021;52.836;6.376;2023-05-25T07:26:16;102945.53;;;14.03;67.71
55456;BME280;63021;52.836;6.376;2023-05-25T07:28:44;102941.53;;;14.09;67.56
55456;BME280;63021;52.836;6.376;2023-05-25T07:31:10;102946.41;;;14.15;66.83
55456;BME280;63021;52.836;6.376;2023-05-25T07:33:36;102950.56;;;14.19;66.63
55456;BME280;63021;52.836;6.376;2023-05-25T07:36:01;102948.72;;;14.20;66.19
55456;BME280;63021;52.836;6.376;2023-05-25T07:38:27;102960.28;;;14.20;65.99
55456;BME280;63021;52.836;6.376;2023-05-25T07:40:52;102955.81;;;14.21;65.50
55456;BME280;63021;52.836;6.376;2023-05-25T07:43:17;102963.84;;;14.21;65.31
55456;BME280;63021;52.836;6.376;2023-05-25T07:45:43;102958.50;;;14.21;65.61
55456;BME280;63021;52.836;6.376;2023-05-25T07:48:08;102953.00;;;14.23;65.19
55456;BME280;63021;52.836;6.376;2023-05-25T07:50:34;102952.00;;;14.24;64.53
55456;BME280;63021;52.836;6.376;2023-05-25T07:52:59;102954.59;;;14.25;64.65
55456;BME280;63021;52.836;6.376;2023-05-25T07:55:25;102952.75;;;14.26;63.98
55456;BME280;63021;52.836;6.376;2023-05-25T07:57:52;102955.44;;;14.26;64.39
55456;BME280;63021;52.836;6.376;2023-05-25T08:00:18;102960.44;;;14.30;63.95
55456;BME280;63021;52.836;6.376;2023-05-25T08:02:43;102965.56;;;14.33;63.16
55456;BME280;63021;52.836;6.376;2023-05-25T08:05:09;102971.53;;;14.37;62.64
55456;BME280;63021;52.836;6.376;2023-05-25T08:07:34;102972.13;;;14.41;61.51
55456;BME280;63021;52.836;6.376;2023-05-25T08:10:00;102967.28;;;14.46;61.64
55456;BME280;63021;52.836;6.376;2023-05-25T08:12:26;102963.38;;;14.50;60.79
55456;BME280;63021;52.836;6.376;2023-05-25T08:14:52;102971.06;;;14.54;60.15
55456;BME280;63021;52.836;6.376;2023-05-25T08:17:19;102971.91;;;14.55;59.90
55456;BME280;63021;52.836;6.376;2023-05-25T08:19:44;102980.69;;;14.57;59.71
55456;BME280;63021;52.836;6.376;2023-05-25T08:22:10;102975.34;;;14.57;60.13
55456;BME280;63021;52.836;6.376;2023-05-25T08:24:35;102976.06;;;14.59;59.81
55456;BME280;63021;52.836;6.376;2023-05-25T08:27:01;102981.19;;;14.62;60.65
55456;BME280;63021;52.836;6.376;2023-05-25T08:29:26;102988.78;;;14.68;60.47
55456;BME280;63021;52.836;6.376;2023-05-25T08:31:52;102987.31;;;14.76;60.31
55456;BME280;63021;52.836;6.376;2023-05-25T08:34:18;102996.81;;;14.80;59.84
55456;BME280;63021;52.836;6.376;2023-05-25T08:36:43;103000.09;;;14.83;60.08
55456;BME280;63021;52.836;6.376;2023-05-25T08:39:09;102996.44;;;14.84;59.94
55456;BME280;63021;52.836;6.376;2023-05-25T08:41:36;103002.66;;;14.85;59.66
55456;BME280;63021;52.836;6.376;2023-05-25T08:44:05;102994.97;;;14.80;59.69
55456;BME280;63021;52.836;6.376;2023-05-25T08:46:32;102997.91;;;14.77;59.52
55456;BME280;63021;52.836;6.376;2023-05-25T08:49:06;103001.56;;;14.76;60.28
55456;BME280;63021;52.836;6.376;2023-05-25T08:51:37;103005.09;;;14.77;60.18
55456;BME280;63021;52.836;6.376;2023-05-25T08:54:12;103001.44;;;14.78;60.56
55456;BME280;63021;52.836;6.376;2023-05-25T08:59:51;102999.84;;;14.86;60.59
55456;BME280;63021;52.836;6.376;2023-05-25T09:02:44;103002.16;;;14.91;60.79
55456;BME280;63021;52.836;6.376;2023-05-25T09:05:13;102994.72;;;14.95;60.39
55456;BME280;63021;52.836;6.376;2023-05-25T09:07:42;103001.56;;;14.99;60.20
55456;BME280;63021;52.836;6.376;2023-05-25T09:10:12;102996.19;;;14.99;60.02
55456;BME280;63021;52.836;6.376;2023-05-25T09:12:39;103009.22;;;15.03;59.58
55456;BME280;63021;52.836;6.376;2023-05-25T09:15:07;103005.47;;;15.06;59.63
55456;BME280;63021;52.836;6.376;2023-05-25T09:17:34;103004.38;;;15.09;59.56
55456;BME280;63021;52.836;6.376;2023-05-25T09:19:59;102998.75;;;15.12;59.30
55456;BME280;63021;52.836;6.376;2023-05-25T09:22:25;103007.50;;;15.14;59.23
55456;BME280;63021;52.836;6.376;2023-05-25T09:24:50;103014.47;;;15.16;58.17
55456;BME280;63021;52.836;6.376;2023-05-25T09:27:17;103007.38;;;15.15;57.56
55456;BME280;63021;52.836;6.376;2023-05-25T09:29:47;103013.38;;;15.19;56.76
55456;BME280;63021;52.836;6.376;2023-05-25T09:32:13;103006.03;;;15.21;56.57
55456;BME280;63021;52.836;6.376;2023-05-25T09:34:38;103007.50;;;15.25;56.61
55456;BME280;63021;52.836;6.376;2023-05-25T09:37:12;103005.31;;;15.30;56.33
55456;BME280;63021;52.836;6.376;2023-05-25T09:39:41;103007.72;;;15.33;56.49
55456;BME280;63021;52.836;6.376;2023-05-25T09:42:06;103011.88;;;15.37;56.71
55456;BME280;63021;52.836;6.376;2023-05-25T09:44:32;103011.22;;;15.45;56.71
55456;BME280;63021;52.836;6.376;2023-05-25T09:46:57;103010.34;;;15.56;56.33
55456;BME280;63021;52.836;6.376;2023-05-25T09:49:23;103018.88;;;15.61;55.49
55456;BME280;63021;52.836;6.376;2023-05-25T09:51:48;103017.91;;;15.62;55.37
55456;BME280;63021;52.836;6.376;2023-05-25T09:54:14;103020.31;;;15.65;55.83
55456;BME280;63021;52.836;6.376;2023-05-25T09:56:40;103023.00;;;15.65;54.80
55456;BME280;63021;52.836;6.376;2023-05-25T09:59:10;103022.28;;;15.63;53.48
55456;BME280;63021;52.836;6.376;2023-05-25T10:01:36;103025.47;;;15.57;53.55
55456;BME280;63021;52.836;6.376;2023-05-25T10:04:01;103021.22;;;15.54;53.59
55456;BME280;63021;52.836;6.376;2023-05-25T10:06:27;103030.72;;;15.58;53.59
55456;BME280;63021;52.836;6.376;2023-05-25T10:08:55;103031.31;;;15.62;53.69
55456;BME280;63021;52.836;6.376;2023-05-25T10:11:23;103028.13;;;15.68;54.13
55456;BME280;63021;52.836;6.376;2023-05-25T10:13:49;103032.13;;;15.74;54.24
55456;BME280;63021;52.836;6.376;2023-05-25T10:16:16;103028.97;;;15.80;53.76
55456;BME280;63021;52.836;6.376;2023-05-25T10:19:03;103031.16;;;15.86;53.70
55456;BME280;63021;52.836;6.376;2023-05-25T10:21:30;103034.69;;;15.87;52.48
55456;BME280;63021;52.836;6.376;2023-05-25T10:24:13;103028.78;;;15.93;53.05
55456;BME280;63021;52.836;6.376;2023-05-25T10:26:49;103032.91;;;15.97;53.51
55456;BME280;63021;52.836;6.376;2023-05-25T10:29:19;103039.03;;;15.99;53.26
55456;BME280;63021;52.836;6.376;2023-05-25T10:31:44;103041.19;;;16.05;53.19
55456;BME280;63021;52.836;6.376;2023-05-25T10:34:11;103029.22;;;16.09;52.46
55456;BME280;63021;52.836;6.376;2023-05-25T10:36:38;103033.09;;;16.17;52.09
55456;BME280;63021;52.836;6.376;2023-05-25T10:39:06;103035.97;;;16.25;52.41
55456;BME280;63021;52.836;6.376;2023-05-25T10:41:32;103025.66;;;16.30;52.31
55456;BME280;63021;52.836;6.376;2023-05-25T10:43:58;103027.50;;;16.30;50.90
55456;BME280;63021;52.836;6.376;2023-05-25T10:46:24;103020.22;;;16.20;49.92
55456;BME280;63021;52.836;6.376;2023-05-25T10:48:50;103027.56;;;16.18;50.05
55456;BME280;63021;52.836;6.376;2023-05-25T10:51:38;103032.56;;;16.23;50.82
55456;BME280;63021;52.836;6.376;2023-05-25T10:54:05;103022.06;;;16.20;50.24
55456;BME280;63021;52.836;6.376;2023-05-25T10:56:30;103026.59;;;16.19;50.25
55456;BME280;63021;52.836;6.376;2023-05-25T10:58:56;103017.41;;;16.22;50.06
55456;BME280;63021;52.836;6.376;2023-05-25T11:01:22;103015.06;;;16.28;50.81
55456;BME280;63021;52.836;6.376;2023-05-25T11:06:21;103027.59;;;16.39;50.14
55456;BME280;63021;52.836;6.376;2023-05-25T11:11:15;103019.38;;;16.41;49.12
55456;BME280;63021;52.836;6.376;2023-05-25T11:13:48;103022.44;;;16.36;48.28
55456;BME280;63021;52.836;6.376;2023-05-25T11:18:49;103020.00;;;16.54;49.59
55456;BME280;63021;52.836;6.376;2023-05-25T11:23:59;103013.09;;;16.83;48.73
55456;BME280;63021;52.836;6.376;2023-05-25T11:26:33;103003.38;;;16.91;48.69
55456;BME280;63021;52.836;6.376;2023-05-25T11:29:00;103021.97;;;17.04;48.18
55456;BME280;63021;52.836;6.376;2023-05-25T11:31:31;103009.25;;;17.16;47.29
55456;BME280;63021;52.836;6.376;2023-05-25T11:34:00;103022.88;;;17.24;48.25
55456;BME280;63021;52.836;6.376;2023-05-25T11:36:27;103003.78;;;17.37;48.16
55456;BME280;63021;52.836;6.376;2023-05-25T11:38:56;103008.91;;;17.50;49.10
55456;BME280;63021;52.836;6.376;2023-05-25T11:41:22;102999.97;;;17.59;47.87
55456;BME280;63021;52.836;6.376;2023-05-25T11:43:49;103002.81;;;17.67;47.00
55456;BME280;63021;52.836;6.376;2023-05-25T11:46:18;103007.34;;;17.77;47.01
55456;BME280;63021;52.836;6.376;2023-05-25T11:48:48;103006.09;;;17.91;46.65
55456;BME280;63021;52.836;6.376;2023-05-25T11:51:16;103013.06;;;18.03;47.17
55456;BME280;63021;52.836;6.376;2023-05-25T11:53:45;103000.81;;;18.18;47.18
55456;BME280;63021;52.836;6.376;2023-05-25T11:56:12;102997.69;;;18.23;46.91
55456;BME280;63021;52.836;6.376;2023-05-25T11:58:38;102997.41;;;18.16;45.10
55456;BME280;63021;52.836;6.376;2023-05-25T12:01:19;102997.28;;;18.08;43.71
55456;BME280;63021;52.836;6.376;2023-05-25T12:03:49;102989.50;;;17.95;44.72
55456;BME280;63021;52.836;6.376;2023-05-25T12:06:26;103002.69;;;17.98;45.77
55456;BME280;63021;52.836;6.376;2023-05-25T12:08:53;102999.00;;;17.99;45.94
55456;BME280;63021;52.836;6.376;2023-05-25T12:11:26;102999.59;;;18.03;44.59
55456;BME280;63021;52.836;6.376;2023-05-25T12:13:52;102992.63;;;18.00;45.62
55456;BME280;63021;52.836;6.376;2023-05-25T12:16:18;102985.06;;;18.14;46.65
55456;BME280;63021;52.836;6.376;2023-05-25T12:18:44;102988.19;;;18.29;46.58
55456;BME280;63021;52.836;6.376;2023-05-25T12:21:10;102990.53;;;18.42;46.77
55456;BME280;63021;52.836;6.376;2023-05-25T12:23:36;103002.16;;;18.52;46.52
55456;BME280;63021;52.836;6.376;2023-05-25T12:26:19;102996.03;;;18.60;45.28
55456;BME280;63021;52.836;6.376;2023-05-25T12:29:03;102979.81;;;18.69;45.99
55456;BME280;63021;52.836;6.376;2023-05-25T12:31:30;102980.06;;;18.76;45.52
55456;BME280;63021;52.836;6.376;2023-05-25T12:34:15;102985.53;;;18.84;44.93
55456;BME280;63021;52.836;6.376;2023-05-25T12:36:46;102976.34;;;18.87;45.28
55456;BME280;63021;52.836;6.376;2023-05-25T12:39:14;102968.50;;;18.94;44.92
55456;BME280;63021;52.836;6.376;2023-05-25T12:41:51;102977.22;;;19.06;44.52
55456;BME280;63021;52.836;6.376;2023-05-25T12:44:31;102976.09;;;19.08;43.24
55456;BME280;63021;52.836;6.376;2023-05-25T12:49:42;102984.56;;;19.13;43.07
55456;BME280;63021;52.836;6.376;2023-05-25T12:52:09;102981.56;;;19.16;42.52
55456;BME280;63021;52.836;6.376;2023-05-25T12:57:01;102972.47;;;19.17;43.83
55456;BME280;63021;52.836;6.376;2023-05-25T12:59:28;102973.47;;;19.16;42.54
55456;BME280;63021;52.836;6.376;2023-05-25T13:01:53;102967.38;;;19.14;41.49
55456;BME280;63021;52.836;6.376;2023-05-25T13:04:18;102975.78;;;19.11;42.08
55456;BME280;63021;52.836;6.376;2023-05-25T13:06:44;102964.97;;;19.11;42.62
55456;BME280;63021;52.836;6.376;2023-05-25T13:09:09;102974.53;;;19.24;43.29
55456;BME280;63021;52.836;6.376;2023-05-25T13:11:35;102972.81;;;19.32;43.67
55456;BME280;63021;52.836;6.376;2023-05-25T13:14:00;102974.41;;;19.43;43.31
55456;BME280;63021;52.836;6.376;2023-05-25T13:16:26;102974.66;;;19.50;43.95
55456;BME280;63021;52.836;6.376;2023-05-25T13:18:52;102974.50;;;19.51;43.53